Timeline UpdatesTrip UpdatesNews PostsPvt PostsTravel TipsAdmin PostsConv PostsFollowed PostsChat RequestsBlog PostsPNR Posts

Disclaimer
Search
 
 
Sun Aug 31, 2014 03:44:42 ISTHomeTrainsΣChainsAtlasPNRForumGalleryNewsFAQTripsMembersLoginFeedback
No Recent News for this Train
Other Trains in the News **new
Latest...
there are good chances of tkt to be confmed upto WL 80. in non peak season. condition may be different for diwali or peak season.
Wed Feb 26, 2014 (02:31PM)
⇐ Return Journey: Train# 19020

19019/Mumbai Bandra Terminus- Dehradun Express

Apr 15 2014 (1:36PM)
Change Departure Station:
Change Arrival Station:
Post a Train Travel TipPost a Train Travel Tip **new
Post a Comment/Question/Picture/VideoPost a Comment/Question/Picture/Video
Pantry/Catering
✕ NO Pantry Car
✓ Catering Avbl
Loco/Rake Reversals
LRJ/Laksar Junction (4); SRE/Saharanpur Junction (6);
RSA - Rake Sharing
Rake/Coach Composition
LOCO-SLR-S9-S8-S7-S6-S5-S4-S3-S2-S1-AB1-GEN-GEN-HCPV-SLR;;; S9,S8,S7,S6 -(BANDRA TERMINUS-HARIDWAR); Rest Coaches-(BANDRA TERMINUS-DEHRADUN) ; Entry# 571623.
Loco
GZB WAP7 - (BDTS - NZM) TKD WDP 3A -...
Read more...
(NZM - DDN).
News    PNR    Forum    Time-Table    Availability    Fare Chart    Map    Arr/Dep History    Trips    Gallery    ΣChains    X/O    Timeline    
Travel Time: 1h 58m    4 halts    Distance: 44 km    Avg Speed: 22 km/hr
Type: Mail/Express
Zone: WR/Western
Departs @ 04:35 (Avg 14m late)
Platform# 2
SMTWTFS
Faridabad/FDB 
Arrives @ 06:33 (Avg 27m late)
Platform# 1
SMTWTFS
Ghaziabad Junction/GZB 

4 halts. 11 intermediate Stations between Faridabad and Ghaziabad Junction

Show ALL intermediate Stations  Show Old Time-Table

#CodeStation NameX/OArrivesAvgDepartsAvgHaltPFDay#KmSpeedElevZoneAddress
1BDTSMumbai Bandra Terminus (5)  -00:05+011-1346.4344mWRMumbai 400050, Maharashtra
2BVIMumbai Borivali (8)  00:38+300:40+62m61-1327.74519mWRMumbai - 400092, Maharashtra
3BSRVasai Road (7)XO  01:03+201:05+32m31-1310.3797mWRVasai 401202, Maharashtra
4PLGPalghar (3)X  01:35+1601:37+192m11-1270.75219mWRPalghar, Maharashtra
5DRDDahanu Road (5)X  02:15+902:17+92m11-1237.79112mWRDahanu, Maharashtra
6VAPIVapi (3)X  02:49+1202:51+122m11-1189.24927mWRVapi, Gujarat
7BLValsad (3)X  03:23+503:25+122m11-1163.05715mWRValsad, Gujarat
8BIMBilimora Junction (4)X  03:44+803:46+82m11-1145.07911mWRBilimora, Gujarat
9NVSNavsari (3)  04:02+704:04+82m11-1123.84914mWRNavsari, Gujarat
10STSurat (4)X  04:40+304:45+45m11-1094.27219mWRSurat 395001, Gujarat
11KSBKosamba Junction (3)05:11+905:13+92m--1-1062.8-30mWRKosamba, Gujarat
12AKVAnkleshwar Junction (4)X  05:19+1905:21+192m11-1044.34319mWRAnkleshwar, Gujarat
13BHBharuch Junction (5)  05:34+1805:36+182m31-1035.08719mWRBharuch, Gujarat
14MYGMiyagam Karjan (2)X  06:04+2106:06+212m21-994.35329mWRKarjan, Gujarat
15BRCVadodara Junction (7)X  06:40+2306:50+2810m21-964.57336mWRVadodara 390005, Gujarat
16SMLASamlaya Junction (3)  07:12+1607:14+162m21-937.86767mWRVadodara, Gujarat
17CPNChampaner Road Junction  07:24+1507:26+142m21-926.65478mWRPanchmahal, Gujarat
18DRLDerolX  07:40+1107:42+102m21-914.17681mWRKalol, Gujarat
19KRSAKharsaliya (2)X  07:52+1107:54+112m21-901.425107mWRPanchmahal, Gujarat
20GDAGodhra Junction (3)O  08:20+1308:25+135m21-890.664122mWRGodhra, Gujarat
21SATSant Road (2)  08:44+2908:46+282m21-870.271169mWROrwara, Gujarat
22PPDPiplod Junction  08:56+3008:58+312m21-858.379209mWRPiplod, Gujarat
23LMKLimkhedaXO  09:04+3409:06+352m21-850.425205mWRLimkheda, Gujarat
24MAMMangal Mahudi (2)X  09:27+2509:29+252m21-841.869248mWRDabhada, Gujarat
25DHDDahod (3)X  09:50+2609:55+255m21-817.591313mWRDahod, Gujarat
26BIOBordi (2)  10:02+3010:04+292m--1-806.979289mWRNational Highway 59, Gujarat
27ANASAnas (2)X  10:10+3010:12+292m--1-798.980288mWRMadhya Pradesh 389154 ?, Madhya Pradesh
28MGNMeghnagar (3)  10:23+3110:25+322m--1-784.360317mWRJhabua, Madhya Pradesh
29THDRThandla Road (2)  10:33+3210:35+312m--1-776.470317mWRJhabua, Madhya Pradesh
30PCNPanch Pipila (2)  10:47+3410:49+342m--1-762.457369mWRSH 39A, Madhya Pradesh
31AGRAmargarh (2)  10:59+3311:01+322m--1-753.050410mWRSH 39A, Madhya Pradesh
32BMIBamnia (2)X  11:06+3411:08+332m--1-748.851392mWRBamnia, Madhya Pradesh
33BOGBhairongarh (2)X  11:15+3311:17+332m--1-742.871374mWRBhairongarh Railway Station, Madhya Pradesh
34RTIRaoti (2)X  11:27+3511:29+342m--1-731.061409mWRState Highway 39A, Madhya Pradesh
35BILDBildi (2)  11:36+3611:38+352m--1-723.868422mWRMadhya Pradesh, Madhya Pradesh
36MRNMorwani (2)X  11:46+3711:48+362m--1-714.820459mWRDantoda, Madhya Pradesh
37RTMRatlam Junction (7)X  12:20+2812:40+2820m51-704.059495mWRRatlam, Madhya Pradesh
38BODBangrod  12:50+3312:52+322m--1-694.263484mWRRatlam, Madhya Pradesh
39RNHRunkhera  12:59+3313:01+332m--1-686.963478mWRUjjain, Madhya Pradesh
40KUHKhachrod (2)X  13:11+3513:13+352m--1-676.413497mWRUjjain, Madhya Pradesh
41NADNagda Junction (4)  14:15+714:25+710m11-662.657468mWRNagda, Madhya Pradesh
42MEPMahidpur RoadX  14:43+914:45+102m--1-645.580493mWCRGogapur, Madhya Pradesh
43LNRLuni RichhaX  14:53+1114:55+112m--1-634.961471mWCRAlote, Madhya Pradesh
44VMAVikramgarh Alot (2)  15:08+915:10+112m21-621.651443mWCRKota Division, Madhya Pradesh
45THURThuria  15:19+1015:21+112m--1-614.071430mWCRMDR 45, Madhya Pradesh
46CMUChau Mahla (3)X  15:33+1115:35+132m21-599.871426mWCRJhalawar, Rajasthan
47SVASuwasra (2)X  15:48+1415:50+152m--1-584.562450mWCRSuwasra, Madhya Pradesh
48SGZShamgarh (3)X  16:03+1516:08+145m--1-571.065463mWCRMandsaur, Madhya Pradesh
49GOHGaroth (2)X  16:18+1316:20+142m21-560.272441mWCRMadhya Pradesh 458880, Madhya Pradesh
50BWMBhawani Mandi (3)X  16:39+1316:41+162m--1-537.558384mWCRBhawani Mandi, Madhya Pradesh
51JHWJhalawar Road (3)  16:58+1417:00+152m--1-521.157361mWCRJhalawar City, Rajasthan
52RMARamganj Mandi Junction (3)X  17:13+1217:15+152m--1-508.742358mWCRRamganj Mandi, Rajasthan
53MKXMorak (2)  17:28+1317:30+142m--1-499.668337mWCRMorak, Rajasthan
54DARADaraXO  17:43+1717:45+172m--1-484.948354mWCRDara, Rajasthan
55DKNTDakaniya Talav (2)  18:33+1018:35+122m11-446.822278mWCRKota, Rajasthan
56KOTAKota Junction (5)X  19:00+419:30+1630m11-437.436256mWCRKota, Rajasthan
57GQLGurlaX  19:39+2119:41+212m--1-432.053251mWCRSH 33, Rajasthan
58KPTNKeshorai PatanX  19:50+2019:52+202m--1-424.181243mWCRSH 33, Rajasthan
59KPZKapren  20:07+2220:09+212m--1-403.9124234mWCRKota - Lalsot Mega Highway, Rajasthan
60LKELakheri (3)  20:22+3020:24+302m--1-377.047228mWCRBundi, Rajasthan
61IDGIndargarh Sumerganj Mandi (2)X  20:38+2920:40+302m--1-366.072247mWCRIndargarh, Rajasthan
62SWMSawai Madhopur Junction (4)X  21:10+3221:15+335m--1-329.765266mWCRSawai Madhopur, Rajasthan
63MLZMalarna  21:43+3121:45+312m--1-299.667236mWCRSawai Madhopur, Rajasthan
64NNWNarayanpur Tatwara (2)  22:00+3122:02+322m--1-282.831256mWCRSawai Madhopur, Rajasthan
65GGCGangapur City (3)  22:35+1722:40+225m21-265.868270mWCRGangapur, Rajasthan
66SMBJShri Mahabirji (3)  23:10+2223:12+232m--1-231.756240mWCRKarauli, Rajasthan
67HANHindaun City (2)  23:23+2323:25+272m--1-221.679230mWCRKarauli, Rajasthan
68FSPFateh Singhpura  23:35+3023:37+292m--1-208.336223mWCRState Highway 1, Rajasthan
69BXNBayana Junction (3)X  00:10+2000:15+255m--2-188.763198mWCRBayana, Rajasthan
70BTEBharatpur Junction (5)X  00:55+1601:00+365m--2-146.725174mWCRBharatpur, Rajasthan
71MTJMathura Junction (10)O  02:20+802:25+135m32-113.275179mNCRMathura, Uttar Pradesh
72KSVKosi Kalan (3)  02:58+1503:00+152m12-71.748189mNCRKosi Kalan, Uttar Pradesh
73PWLPalwal (8)  03:53+003:55+42m--2-29.252200mNRPalwal, Haryana
74ASTAsaoti (5)  04:08+604:10+62m32-18.059203mNRAsaoti, Haryana
75BVHBallabgarh (5)X  04:20+1004:22+102m32-8.144203mNRFaridabad, Haryana
76FDB»Faridabad (4)»  04:33+1304:35+142m220.056206mNRold Faridabad, Haryana
77TKDTuglakabad (4)X  04:47+1704:49+172m--211.121213mNRNear Tughlakabad Metro Station, Delhi NCT
78OKAOkhla (4)X  05:06+1405:08+142m--217.113221mNRIshwar Nagar Mathura Road, Delhi NCT
79NZMDelhi Hazrat Nizamuddin (7)05:25+1305:50+1525m1220.846209mNRNew Delhi 110013, Delhi NCT
80SBBSahibabad Junction (5)X  06:11+3206:13+332m--236.820209mNRGhaziabad, Uttar Pradesh
81GZB•Ghaziabad Junction (6)•  06:33+2706:35+272m1243.559217mNRGhaziabad, Uttar Pradesh
82GZNNew Ghaziabad (2)  06:41-06:43-2m--249.470213mNRGhaziabad, Uttar Pradesh
83MUDMuradnagar (2)  06:53+3906:55+482m--261.267220mNRGhaziabad, Uttar Pradesh
84MDNRModinagar (2)X  07:04+5207:06+562m--271.361221mNRGhaziabad, Uttar Pradesh
85MTCMeerut City Junction (6)XO  07:25+5608:30+3865m4290.832229mNRMeerut, Uttar Pradesh
86MUTMeerut Cantt. (2)X  08:38+3908:40+442m--295.122230mNRMeerut, Uttar Pradesh
87KATKhatauli (2)X  09:58+1910:00+202m12124.238239mNRKhatauli, Uttar Pradesh
88MOZMuzaffarnagar (3)X  10:35+2010:37+252m22146.340247mNRMuzaffarNagar, Uttar Pradesh
89DBDDeoband (2)X  11:13+1411:15+152m--2170.437258mNRSaharanpur, Uttar Pradesh
90SRESaharanpur Junction (6)XO12:10+812:45+035m52204.669276mNRSaharanpur, Uttar Pradesh
91RKRoorkee (3)  13:15+1213:17+142m12239.338264mNRRoorkee - 247667, Uttarakhand
92LRJLaksar Junction (4)X13:45+914:10+1025m--2257.169238mNRLaksar, Uttarakhand
93JWPJwalapur  14:30+1814:32+272m12280.013292mNRHaridwar, Uttarakhand
94HWHaridwar Junction (9)X  14:50+1515:15+2025m12284.027294mNRHaridwar, Uttarakhand
95MOTCMotichur (2)X  15:25+2415:27+262m12288.519312mNRHaridwar, Uttarakhand
96RWLRaiwala Junction (2)  15:48+1515:50+162m12295.229361mNRRishikesh, Uttarakhand
97DWODoiwala  16:33+416:35+72m12315.820484mNRDehradun, Uttarakhand
98DDNDehradun (4)  17:35-1-32335.7-648mNRDehradun, Uttarakhand
Scroll to Top
Scroll to Bottom